sensor_id;sensor_type;location;lat;lon;timestamp;P1;durP1;ratioP1;P2;durP2;ratioP2
13014;SDS011;6573;57.696;11.950;2023-08-12T00:00:09;7.83;;;3.63;;
13014;SDS011;6573;57.696;11.950;2023-08-12T00:02:39;5.77;;;3.73;;
13014;SDS011;6573;57.696;11.950;2023-08-12T00:05:08;5.23;;;3.50;;
13014;SDS011;6573;57.696;11.950;2023-08-12T00:07:42;10.33;;;3.70;;
13014;SDS011;6573;57.696;11.950;2023-08-12T00:10:11;7.03;;;3.83;;
13014;SDS011;6573;57.696;11.950;2023-08-12T00:12:40;6.40;;;3.60;;
13014;SDS011;6573;57.696;11.950;2023-08-12T00:15:09;7.70;;;4.17;;
13014;SDS011;6573;57.696;11.950;2023-08-12T00:17:40;5.63;;;3.73;;
13014;SDS011;6573;57.696;11.950;2023-08-12T00:20:09;8.87;;;3.80;;
13014;SDS011;6573;57.696;11.950;2023-08-12T00:22:39;7.17;;;3.70;;
13014;SDS011;6573;57.696;11.950;2023-08-12T00:25:10;7.90;;;4.23;;
13014;SDS011;6573;57.696;11.950;2023-08-12T00:27:38;6.00;;;3.70;;
13014;SDS011;6573;57.696;11.950;2023-08-12T00:30:07;5.77;;;3.80;;
13014;SDS011;6573;57.696;11.950;2023-08-12T00:32:36;7.20;;;3.83;;
13014;SDS011;6573;57.696;11.950;2023-08-12T00:35:05;7.50;;;3.60;;
13014;SDS011;6573;57.696;11.950;2023-08-12T00:37:34;7.00;;;4.00;;
13014;SDS011;6573;57.696;11.950;2023-08-12T00:40:02;8.07;;;3.80;;
13014;SDS011;6573;57.696;11.950;2023-08-12T00:42:33;9.20;;;4.60;;
13014;SDS011;6573;57.696;11.950;2023-08-12T00:45:01;10.83;;;4.20;;
13014;SDS011;6573;57.696;11.950;2023-08-12T00:47:30;4.10;;;3.70;;
13014;SDS011;6573;57.696;11.950;2023-08-12T00:49:59;7.97;;;4.03;;
13014;SDS011;6573;57.696;11.950;2023-08-12T00:52:27;7.83;;;3.50;;
13014;SDS011;6573;57.696;11.950;2023-08-12T00:54:56;6.57;;;3.53;;
13014;SDS011;6573;57.696;11.950;2023-08-12T00:57:24;6.33;;;3.30;;
13014;SDS011;6573;57.696;11.950;2023-08-12T00:59:54;8.67;;;3.63;;
13014;SDS011;6573;57.696;11.950;2023-08-12T01:02:23;7.40;;;3.93;;
13014;SDS011;6573;57.696;11.950;2023-08-12T01:04:52;8.00;;;3.63;;
13014;SDS011;6573;57.696;11.950;2023-08-12T01:07:21;7.30;;;3.60;;
13014;SDS011;6573;57.696;11.950;2023-08-12T01:09:49;8.17;;;3.83;;
13014;SDS011;6573;57.696;11.950;2023-08-12T01:12:18;7.33;;;3.93;;
13014;SDS011;6573;57.696;11.950;2023-08-12T01:14:58;8.17;;;4.10;;
13014;SDS011;6573;57.696;11.950;2023-08-12T01:17:32;8.00;;;4.40;;
13014;SDS011;6573;57.696;11.950;2023-08-12T01:20:04;5.97;;;3.87;;
13014;SDS011;6573;57.696;11.950;2023-08-12T01:22:36;6.83;;;4.13;;
13014;SDS011;6573;57.696;11.950;2023-08-12T01:25:09;9.27;;;4.10;;
13014;SDS011;6573;57.696;11.950;2023-08-12T01:27:37;7.10;;;3.80;;
13014;SDS011;6573;57.696;11.950;2023-08-12T01:30:09;9.00;;;4.00;;
13014;SDS011;6573;57.696;11.950;2023-08-12T01:32:39;7.90;;;4.17;;
13014;SDS011;6573;57.696;11.950;2023-08-12T01:35:12;7.03;;;3.90;;
13014;SDS011;6573;57.696;11.950;2023-08-12T01:37:45;8.27;;;3.87;;
13014;SDS011;6573;57.696;11.950;2023-08-12T01:40:17;7.47;;;3.83;;
13014;SDS011;6573;57.696;11.950;2023-08-12T01:42:47;8.13;;;3.90;;
13014;SDS011;6573;57.696;11.950;2023-08-12T01:45:17;8.70;;;3.90;;
13014;SDS011;6573;57.696;11.950;2023-08-12T01:47:46;9.53;;;3.77;;
13014;SDS011;6573;57.696;11.950;2023-08-12T01:50:17;6.13;;;4.07;;
13014;SDS011;6573;57.696;11.950;2023-08-12T01:52:48;4.53;;;3.30;;
13014;SDS011;6573;57.696;11.950;2023-08-12T01:55:17;6.07;;;3.43;;
13014;SDS011;6573;57.696;11.950;2023-08-12T01:57:46;7.00;;;3.60;;
13014;SDS011;6573;57.696;11.950;2023-08-12T02:00:15;6.30;;;3.60;;
13014;SDS011;6573;57.696;11.950;2023-08-12T02:02:46;6.30;;;3.57;;
13014;SDS011;6573;57.696;11.950;2023-08-12T02:05:15;8.30;;;3.37;;
13014;SDS011;6573;57.696;11.950;2023-08-12T02:07:43;7.63;;;3.73;;
13014;SDS011;6573;57.696;11.950;2023-08-12T02:10:11;5.47;;;3.60;;
13014;SDS011;6573;57.696;11.950;2023-08-12T02:12:42;6.47;;;3.70;;
13014;SDS011;6573;57.696;11.950;2023-08-12T02:15:11;8.00;;;3.27;;
13014;SDS011;6573;57.696;11.950;2023-08-12T02:17:39;7.60;;;3.80;;
13014;SDS011;6573;57.696;11.950;2023-08-12T02:20:07;8.40;;;3.60;;
13014;SDS011;6573;57.696;11.950;2023-08-12T02:22:39;7.00;;;3.67;;
13014;SDS011;6573;57.696;11.950;2023-08-12T02:25:07;5.23;;;3.40;;
13014;SDS011;6573;57.696;11.950;2023-08-12T02:27:39;8.20;;;3.33;;
13014;SDS011;6573;57.696;11.950;2023-08-12T02:30:09;9.97;;;3.30;;
13014;SDS011;6573;57.696;11.950;2023-08-12T02:32:38;8.70;;;3.57;;
13014;SDS011;6573;57.696;11.950;2023-08-12T02:35:10;8.43;;;3.33;;
13014;SDS011;6573;57.696;11.950;2023-08-12T02:37:41;5.07;;;3.40;;
13014;SDS011;6573;57.696;11.950;2023-08-12T02:40:09;8.33;;;3.40;;
13014;SDS011;6573;57.696;11.950;2023-08-12T02:42:41;7.80;;;3.20;;
13014;SDS011;6573;57.696;11.950;2023-08-12T02:45:11;6.33;;;3.10;;
13014;SDS011;6573;57.696;11.950;2023-08-12T02:47:39;11.53;;;3.63;;
13014;SDS011;6573;57.696;11.950;2023-08-12T02:50:10;7.77;;;3.27;;
13014;SDS011;6573;57.696;11.950;2023-08-12T02:52:38;5.63;;;3.20;;
13014;SDS011;6573;57.696;11.950;2023-08-12T02:55:07;5.83;;;3.17;;
13014;SDS011;6573;57.696;11.950;2023-08-12T02:57:39;10.30;;;3.57;;
13014;SDS011;6573;57.696;11.950;2023-08-12T03:00:08;8.63;;;3.27;;
13014;SDS011;6573;57.696;11.950;2023-08-12T03:02:41;9.30;;;3.33;;
13014;SDS011;6573;57.696;11.950;2023-08-12T03:05:10;8.10;;;3.33;;
13014;SDS011;6573;57.696;11.950;2023-08-12T03:07:38;6.37;;;3.10;;
13014;SDS011;6573;57.696;11.950;2023-08-12T03:10:07;8.53;;;3.27;;
13014;SDS011;6573;57.696;11.950;2023-08-12T03:12:36;8.93;;;3.97;;
13014;SDS011;6573;57.696;11.950;2023-08-12T03:15:05;8.03;;;3.20;;
13014;SDS011;6573;57.696;11.950;2023-08-12T03:17:35;8.17;;;3.60;;
13014;SDS011;6573;57.696;11.950;2023-08-12T03:20:07;8.27;;;3.60;;
13014;SDS011;6573;57.696;11.950;2023-08-12T03:22:36;8.03;;;3.53;;
13014;SDS011;6573;57.696;11.950;2023-08-12T03:25:06;9.93;;;3.67;;
13014;SDS011;6573;57.696;11.950;2023-08-12T03:27:35;8.37;;;3.77;;
13014;SDS011;6573;57.696;11.950;2023-08-12T03:30:04;7.10;;;3.53;;
13014;SDS011;6573;57.696;11.950;2023-08-12T03:32:33;5.57;;;2.90;;
13014;SDS011;6573;57.696;11.950;2023-08-12T03:35:02;7.17;;;3.30;;
13014;SDS011;6573;57.696;11.950;2023-08-12T03:37:32;10.63;;;3.30;;
13014;SDS011;6573;57.696;11.950;2023-08-12T03:40:00;7.40;;;3.30;;
13014;SDS011;6573;57.696;11.950;2023-08-12T03:42:29;8.93;;;3.50;;
13014;SDS011;6573;57.696;11.950;2023-08-12T03:44:57;9.33;;;3.30;;
13014;SDS011;6573;57.696;11.950;2023-08-12T03:47:26;9.97;;;3.43;;
13014;SDS011;6573;57.696;11.950;2023-08-12T03:49:54;5.97;;;3.10;;
13014;SDS011;6573;57.696;11.950;2023-08-12T03:52:22;6.57;;;2.83;;
13014;SDS011;6573;57.696;11.950;2023-08-12T03:54:52;7.50;;;3.30;;
13014;SDS011;6573;57.696;11.950;2023-08-12T03:57:20;7.73;;;3.40;;
13014;SDS011;6573;57.696;11.950;2023-08-12T03:59:49;6.53;;;3.20;;
13014;SDS011;6573;57.696;11.950;2023-08-12T04:02:17;7.13;;;3.10;;
13014;SDS011;6573;57.696;11.950;2023-08-12T04:04:45;5.43;;;3.30;;
13014;SDS011;6573;57.696;11.950;2023-08-12T04:07:14;5.07;;;2.97;;
13014;SDS011;6573;57.696;11.950;2023-08-12T04:09:42;6.53;;;3.17;;
13014;SDS011;6573;57.696;11.950;2023-08-12T04:12:12;8.40;;;3.40;;
13014;SDS011;6573;57.696;11.950;2023-08-12T04:14:40;7.00;;;3.10;;
13014;SDS011;6573;57.696;11.950;2023-08-12T04:17:08;9.97;;;3.30;;
13014;SDS011;6573;57.696;11.950;2023-08-12T04:19:37;5.33;;;3.30;;
13014;SDS011;6573;57.696;11.950;2023-08-12T04:22:06;8.17;;;3.30;;
13014;SDS011;6573;57.696;11.950;2023-08-12T04:24:37;6.10;;;3.30;;
13014;SDS011;6573;57.696;11.950;2023-08-12T04:27:05;12.13;;;3.40;;
13014;SDS011;6573;57.696;11.950;2023-08-12T04:29:35;12.73;;;3.47;;
13014;SDS011;6573;57.696;11.950;2023-08-12T04:32:04;7.43;;;3.13;;
13014;SDS011;6573;57.696;11.950;2023-08-12T04:34:33;7.07;;;3.10;;
13014;SDS011;6573;57.696;11.950;2023-08-12T04:37:01;9.53;;;3.47;;
13014;SDS011;6573;57.696;11.950;2023-08-12T04:39:30;6.13;;;3.33;;
13014;SDS011;6573;57.696;11.950;2023-08-12T04:41:58;8.67;;;3.53;;
13014;SDS011;6573;57.696;11.950;2023-08-12T04:44:27;9.83;;;3.63;;
13014;SDS011;6573;57.696;11.950;2023-08-12T04:46:57;5.67;;;3.00;;
13014;SDS011;6573;57.696;11.950;2023-08-12T04:49:25;10.37;;;3.57;;
13014;SDS011;6573;57.696;11.950;2023-08-12T04:51:53;6.03;;;3.67;;
13014;SDS011;6573;57.696;11.950;2023-08-12T04:54:22;8.70;;;3.57;;
13014;SDS011;6573;57.696;11.950;2023-08-12T04:56:50;9.87;;;3.50;;
13014;SDS011;6573;57.696;11.950;2023-08-12T04:59:18;6.60;;;3.83;;
13014;SDS011;6573;57.696;11.950;2023-08-12T05:01:47;8.57;;;3.53;;
13014;SDS011;6573;57.696;11.950;2023-08-12T05:04:31;11.40;;;3.60;;
13014;SDS011;6573;57.696;11.950;2023-08-12T05:06:59;9.37;;;3.43;;
13014;SDS011;6573;57.696;11.950;2023-08-12T05:09:27;8.63;;;3.43;;
13014;SDS011;6573;57.696;11.950;2023-08-12T05:11:56;6.07;;;3.53;;
13014;SDS011;6573;57.696;11.950;2023-08-12T05:14:24;7.63;;;3.43;;
13014;SDS011;6573;57.696;11.950;2023-08-12T05:16:52;9.30;;;3.83;;
13014;SDS011;6573;57.696;11.950;2023-08-12T05:19:21;15.93;;;3.67;;
13014;SDS011;6573;57.696;11.950;2023-08-12T05:21:50;7.10;;;3.50;;
13014;SDS011;6573;57.696;11.950;2023-08-12T05:24:19;7.80;;;3.77;;
13014;SDS011;6573;57.696;11.950;2023-08-12T05:26:47;7.57;;;3.63;;
13014;SDS011;6573;57.696;11.950;2023-08-12T05:29:15;12.03;;;3.57;;
13014;SDS011;6573;57.696;11.950;2023-08-12T05:31:44;8.50;;;3.60;;
13014;SDS011;6573;57.696;11.950;2023-08-12T05:34:12;8.50;;;4.10;;
13014;SDS011;6573;57.696;11.950;2023-08-12T05:36:41;9.33;;;3.97;;
13014;SDS011;6573;57.696;11.950;2023-08-12T05:39:11;12.77;;;4.00;;
13014;SDS011;6573;57.696;11.950;2023-08-12T05:41:39;7.90;;;3.70;;
13014;SDS011;6573;57.696;11.950;2023-08-12T05:44:07;9.13;;;3.50;;
13014;SDS011;6573;57.696;11.950;2023-08-12T05:46:39;11.70;;;3.80;;
13014;SDS011;6573;57.696;11.950;2023-08-12T05:49:07;6.47;;;3.70;;
13014;SDS011;6573;57.696;11.950;2023-08-12T05:51:36;9.27;;;4.00;;
13014;SDS011;6573;57.696;11.950;2023-08-12T05:54:05;9.30;;;4.10;;
13014;SDS011;6573;57.696;11.950;2023-08-12T05:56:34;13.80;;;3.90;;
13014;SDS011;6573;57.696;11.950;2023-08-12T05:59:03;9.03;;;4.20;;
13014;SDS011;6573;57.696;11.950;2023-08-12T06:01:31;11.93;;;4.50;;
13014;SDS011;6573;57.696;11.950;2023-08-12T06:04:00;14.07;;;4.43;;
13014;SDS011;6573;57.696;11.950;2023-08-12T06:06:28;10.80;;;4.00;;
13014;SDS011;6573;57.696;11.950;2023-08-12T06:08:57;12.83;;;4.27;;
13014;SDS011;6573;57.696;11.950;2023-08-12T06:11:25;6.13;;;3.73;;
13014;SDS011;6573;57.696;11.950;2023-08-12T06:13:56;11.97;;;3.83;;
13014;SDS011;6573;57.696;11.950;2023-08-12T06:16:24;9.47;;;3.90;;
13014;SDS011;6573;57.696;11.950;2023-08-12T06:18:53;13.37;;;4.70;;
13014;SDS011;6573;57.696;11.950;2023-08-12T06:21:21;13.97;;;4.30;;
13014;SDS011;6573;57.696;11.950;2023-08-12T06:23:50;13.17;;;4.90;;
13014;SDS011;6573;57.696;11.950;2023-08-12T06:26:18;10.10;;;4.20;;
13014;SDS011;6573;57.696;11.950;2023-08-12T06:28:46;14.80;;;4.47;;
13014;SDS011;6573;57.696;11.950;2023-08-12T06:31:16;10.90;;;4.60;;
13014;SDS011;6573;57.696;11.950;2023-08-12T06:33:45;11.83;;;4.63;;
13014;SDS011;6573;57.696;11.950;2023-08-12T06:36:13;11.03;;;4.57;;
13014;SDS011;6573;57.696;11.950;2023-08-12T06:38:41;11.90;;;4.43;;
13014;SDS011;6573;57.696;11.950;2023-08-12T06:41:09;11.67;;;4.67;;
13014;SDS011;6573;57.696;11.950;2023-08-12T06:43:41;13.97;;;4.53;;
13014;SDS011;6573;57.696;11.950;2023-08-12T06:46:09;8.10;;;4.37;;
13014;SDS011;6573;57.696;11.950;2023-08-12T06:48:39;12.03;;;4.73;;
13014;SDS011;6573;57.696;11.950;2023-08-12T06:51:10;9.13;;;5.00;;
13014;SDS011;6573;57.696;11.950;2023-08-12T06:53:38;11.43;;;4.40;;
13014;SDS011;6573;57.696;11.950;2023-08-12T06:56:07;11.03;;;5.80;;
13014;SDS011;6573;57.696;11.950;2023-08-12T06:58:36;9.60;;;5.03;;
13014;SDS011;6573;57.696;11.950;2023-08-12T07:01:04;10.60;;;4.47;;
13014;SDS011;6573;57.696;11.950;2023-08-12T07:03:32;14.33;;;6.27;;
13014;SDS011;6573;57.696;11.950;2023-08-12T07:06:02;12.70;;;5.77;;
13014;SDS011;6573;57.696;11.950;2023-08-12T07:08:31;12.50;;;5.23;;
13014;SDS011;6573;57.696;11.950;2023-08-12T07:10:59;15.17;;;6.30;;
13014;SDS011;6573;57.696;11.950;2023-08-12T07:13:27;15.13;;;5.57;;
13014;SDS011;6573;57.696;11.950;2023-08-12T07:15:56;14.30;;;6.00;;
13014;SDS011;6573;57.696;11.950;2023-08-12T07:18:24;14.33;;;5.43;;
13014;SDS011;6573;57.696;11.950;2023-08-12T07:20:52;11.77;;;5.17;;
13014;SDS011;6573;57.696;11.950;2023-08-12T07:23:22;12.27;;;5.73;;
13014;SDS011;6573;57.696;11.950;2023-08-12T07:25:50;17.90;;;6.53;;
13014;SDS011;6573;57.696;11.950;2023-08-12T07:28:18;14.30;;;5.30;;
13014;SDS011;6573;57.696;11.950;2023-08-12T07:30:47;15.73;;;5.93;;
13014;SDS011;6573;57.696;11.950;2023-08-12T07:33:16;16.17;;;5.50;;
13014;SDS011;6573;57.696;11.950;2023-08-12T07:35:44;12.07;;;5.03;;
13014;SDS011;6573;57.696;11.950;2023-08-12T07:38:13;10.00;;;4.93;;
13014;SDS011;6573;57.696;11.950;2023-08-12T07:40:42;11.00;;;5.70;;
13014;SDS011;6573;57.696;11.950;2023-08-12T07:43:11;11.27;;;5.57;;
13014;SDS011;6573;57.696;11.950;2023-08-12T07:45:39;12.63;;;5.90;;
13014;SDS011;6573;57.696;11.950;2023-08-12T07:48:07;11.73;;;5.30;;
13014;SDS011;6573;57.696;11.950;2023-08-12T07:50:38;10.10;;;5.00;;
13014;SDS011;6573;57.696;11.950;2023-08-12T07:53:07;11.63;;;5.57;;
13014;SDS011;6573;57.696;11.950;2023-08-12T07:55:35;13.40;;;5.60;;
13014;SDS011;6573;57.696;11.950;2023-08-12T07:58:07;14.40;;;5.70;;
13014;SDS011;6573;57.696;11.950;2023-08-12T08:00:35;10.60;;;5.70;;
13014;SDS011;6573;57.696;11.950;2023-08-12T08:03:04;16.33;;;6.47;;
13014;SDS011;6573;57.696;11.950;2023-08-12T08:05:32;16.20;;;5.90;;
13014;SDS011;6573;57.696;11.950;2023-08-12T08:08:01;12.90;;;5.40;;
13014;SDS011;6573;57.696;11.950;2023-08-12T08:10:29;12.67;;;5.60;;
13014;SDS011;6573;57.696;11.950;2023-08-12T08:12:57;10.63;;;5.43;;
13014;SDS011;6573;57.696;11.950;2023-08-12T08:15:27;11.23;;;5.27;;
13014;SDS011;6573;57.696;11.950;2023-08-12T08:17:55;11.17;;;5.10;;
13014;SDS011;6573;57.696;11.950;2023-08-12T08:20:24;10.30;;;5.30;;
13014;SDS011;6573;57.696;11.950;2023-08-12T08:22:52;9.40;;;5.77;;
13014;SDS011;6573;57.696;11.950;2023-08-12T08:25:21;8.50;;;5.33;;
13014;SDS011;6573;57.696;11.950;2023-08-12T08:27:50;11.50;;;5.23;;
13014;SDS011;6573;57.696;11.950;2023-08-12T08:30:18;11.03;;;5.13;;
13014;SDS011;6573;57.696;11.950;2023-08-12T08:32:48;10.23;;;4.57;;
13014;SDS011;6573;57.696;11.950;2023-08-12T08:35:16;10.07;;;4.70;;
13014;SDS011;6573;57.696;11.950;2023-08-12T08:37:45;11.40;;;4.80;;
13014;SDS011;6573;57.696;11.950;2023-08-12T08:40:13;10.63;;;4.47;;
13014;SDS011;6573;57.696;11.950;2023-08-12T08:42:43;10.60;;;5.23;;
13014;SDS011;6573;57.696;11.950;2023-08-12T08:45:14;11.97;;;4.83;;
13014;SDS011;6573;57.696;11.950;2023-08-12T08:47:44;7.97;;;4.77;;
13014;SDS011;6573;57.696;11.950;2023-08-12T08:50:16;13.87;;;5.00;;
13014;SDS011;6573;57.696;11.950;2023-08-12T08:52:46;11.80;;;5.37;;
13014;SDS011;6573;57.696;11.950;2023-08-12T08:55:15;8.10;;;5.60;;
13014;SDS011;6573;57.696;11.950;2023-08-12T08:57:47;11.47;;;5.20;;
13014;SDS011;6573;57.696;11.950;2023-08-12T09:00:16;11.47;;;5.30;;
13014;SDS011;6573;57.696;11.950;2023-08-12T09:02:46;8.90;;;5.50;;
13014;SDS011;6573;57.696;11.950;2023-08-12T09:05:17;12.80;;;6.57;;
13014;SDS011;6573;57.696;11.950;2023-08-12T09:07:47;10.10;;;5.40;;
13014;SDS011;6573;57.696;11.950;2023-08-12T09:10:17;10.53;;;5.17;;
13014;SDS011;6573;57.696;11.950;2023-08-12T09:12:49;12.43;;;5.57;;
13014;SDS011;6573;57.696;11.950;2023-08-12T09:15:19;9.43;;;5.63;;
13014;SDS011;6573;57.696;11.950;2023-08-12T09:17:47;10.77;;;4.90;;
13014;SDS011;6573;57.696;11.950;2023-08-12T09:20:17;7.77;;;4.50;;
13014;SDS011;6573;57.696;11.950;2023-08-12T09:22:46;6.73;;;4.67;;
13014;SDS011;6573;57.696;11.950;2023-08-12T09:25:25;10.93;;;5.10;;
13014;SDS011;6573;57.696;11.950;2023-08-12T09:27:54;12.60;;;4.73;;
13014;SDS011;6573;57.696;11.950;2023-08-12T09:30:23;11.33;;;5.30;;
13014;SDS011;6573;57.696;11.950;2023-08-12T09:32:59;10.00;;;5.23;;
13014;SDS011;6573;57.696;11.950;2023-08-12T09:35:35;11.70;;;5.27;;
13014;SDS011;6573;57.696;11.950;2023-08-12T09:38:05;12.13;;;5.20;;
13014;SDS011;6573;57.696;11.950;2023-08-12T09:40:35;9.13;;;5.17;;
13014;SDS011;6573;57.696;11.950;2023-08-12T09:43:03;7.90;;;5.37;;
13014;SDS011;6573;57.696;11.950;2023-08-12T09:45:33;9.60;;;5.60;;
13014;SDS011;6573;57.696;11.950;2023-08-12T09:48:03;8.23;;;4.97;;
13014;SDS011;6573;57.696;11.950;2023-08-12T09:50:37;8.33;;;5.10;;
13014;SDS011;6573;57.696;11.950;2023-08-12T09:53:05;8.33;;;5.30;;
13014;SDS011;6573;57.696;11.950;2023-08-12T09:55:34;10.83;;;5.90;;
13014;SDS011;6573;57.696;11.950;2023-08-12T09:58:04;9.70;;;5.93;;
13014;SDS011;6573;57.696;11.950;2023-08-12T10:00:34;12.33;;;5.60;;
13014;SDS011;6573;57.696;11.950;2023-08-12T10:03:04;11.47;;;5.30;;
13014;SDS011;6573;57.696;11.950;2023-08-12T10:05:33;10.90;;;5.47;;
13014;SDS011;6573;57.696;11.950;2023-08-12T10:08:03;11.30;;;6.10;;
13014;SDS011;6573;57.696;11.950;2023-08-12T10:10:34;11.50;;;6.53;;
13014;SDS011;6573;57.696;11.950;2023-08-12T10:13:03;10.40;;;5.77;;
13014;SDS011;6573;57.696;11.950;2023-08-12T10:15:34;8.97;;;5.73;;
13014;SDS011;6573;57.696;11.950;2023-08-12T10:18:03;10.53;;;6.07;;
13014;SDS011;6573;57.696;11.950;2023-08-12T10:20:37;10.07;;;6.20;;
13014;SDS011;6573;57.696;11.950;2023-08-12T10:23:14;9.77;;;5.60;;
13014;SDS011;6573;57.696;11.950;2023-08-12T10:25:44;10.27;;;5.90;;
13014;SDS011;6573;57.696;11.950;2023-08-12T10:28:13;9.67;;;5.83;;
13014;SDS011;6573;57.696;11.950;2023-08-12T10:30:41;9.43;;;6.27;;
13014;SDS011;6573;57.696;11.950;2023-08-12T10:33:09;10.60;;;6.20;;
13014;SDS011;6573;57.696;11.950;2023-08-12T10:35:42;11.87;;;6.40;;
13014;SDS011;6573;57.696;11.950;2023-08-12T10:38:20;9.03;;;5.37;;
13014;SDS011;6573;57.696;11.950;2023-08-12T10:40:48;7.70;;;6.20;;
13014;SDS011;6573;57.696;11.950;2023-08-12T10:43:18;9.47;;;5.37;;
13014;SDS011;6573;57.696;11.950;2023-08-12T10:45:46;7.43;;;5.10;;
13014;SDS011;6573;57.696;11.950;2023-08-12T10:48:16;9.20;;;5.17;;
13014;SDS011;6573;57.696;11.950;2023-08-12T10:50:48;12.27;;;5.60;;
13014;SDS011;6573;57.696;11.950;2023-08-12T10:53:22;7.60;;;5.33;;
13014;SDS011;6573;57.696;11.950;2023-08-12T10:55:56;7.83;;;4.70;;
13014;SDS011;6573;57.696;11.950;2023-08-12T10:58:29;7.70;;;4.93;;
13014;SDS011;6573;57.696;11.950;2023-08-12T11:01:01;7.87;;;4.87;;
13014;SDS011;6573;57.696;11.950;2023-08-12T11:03:31;9.13;;;4.90;;
13014;SDS011;6573;57.696;11.950;2023-08-12T11:06:04;9.97;;;5.60;;
13014;SDS011;6573;57.696;11.950;2023-08-12T11:08:34;7.60;;;4.30;;
13014;SDS011;6573;57.696;11.950;2023-08-12T11:11:10;8.07;;;4.23;;
13014;SDS011;6573;57.696;11.950;2023-08-12T11:13:52;10.23;;;4.47;;
13014;SDS011;6573;57.696;11.950;2023-08-12T11:16:30;7.23;;;4.23;;
13014;SDS011;6573;57.696;11.950;2023-08-12T11:19:00;9.97;;;4.30;;
13014;SDS011;6573;57.696;11.950;2023-08-12T11:21:28;8.80;;;3.90;;
13014;SDS011;6573;57.696;11.950;2023-08-12T11:23:58;7.10;;;3.90;;
13014;SDS011;6573;57.696;11.950;2023-08-12T11:26:27;7.93;;;4.00;;
13014;SDS011;6573;57.696;11.950;2023-08-12T11:28:56;4.93;;;3.47;;
13014;SDS011;6573;57.696;11.950;2023-08-12T11:31:27;4.50;;;3.40;;
13014;SDS011;6573;57.696;11.950;2023-08-12T11:33:55;6.13;;;3.13;;
13014;SDS011;6573;57.696;11.950;2023-08-12T11:36:24;6.67;;;3.37;;
13014;SDS011;6573;57.696;11.950;2023-08-12T11:38:53;10.23;;;3.20;;
13014;SDS011;6573;57.696;11.950;2023-08-12T11:41:23;4.43;;;3.30;;
13014;SDS011;6573;57.696;11.950;2023-08-12T11:43:51;7.67;;;3.40;;
13014;SDS011;6573;57.696;11.950;2023-08-12T11:46:20;4.80;;;3.40;;
13014;SDS011;6573;57.696;11.950;2023-08-12T11:48:48;15.27;;;3.40;;
13014;SDS011;6573;57.696;11.950;2023-08-12T11:51:17;7.97;;;3.97;;
13014;SDS011;6573;57.696;11.950;2023-08-12T11:53:46;6.93;;;3.70;;
13014;SDS011;6573;57.696;11.950;2023-08-12T11:56:14;7.07;;;3.87;;
13014;SDS011;6573;57.696;11.950;2023-08-12T11:58:48;6.37;;;3.93;;
13014;SDS011;6573;57.696;11.950;2023-08-12T12:01:19;6.90;;;3.90;;
13014;SDS011;6573;57.696;11.950;2023-08-12T12:03:50;6.57;;;3.57;;
13014;SDS011;6573;57.696;11.950;2023-08-12T12:06:27;6.27;;;3.50;;
13014;SDS011;6573;57.696;11.950;2023-08-12T12:09:03;7.27;;;3.80;;
13014;SDS011;6573;57.696;11.950;2023-08-12T12:11:32;7.27;;;3.63;;
13014;SDS011;6573;57.696;11.950;2023-08-12T12:14:03;10.50;;;3.57;;
13014;SDS011;6573;57.696;11.950;2023-08-12T12:16:38;8.93;;;3.77;;
13014;SDS011;6573;57.696;11.950;2023-08-12T12:19:15;8.47;;;3.33;;
13014;SDS011;6573;57.696;11.950;2023-08-12T12:21:45;6.87;;;3.30;;
13014;SDS011;6573;57.696;11.950;2023-08-12T12:24:14;8.40;;;3.50;;
13014;SDS011;6573;57.696;11.950;2023-08-12T12:26:43;8.23;;;4.10;;
13014;SDS011;6573;57.696;11.950;2023-08-12T12:29:13;8.60;;;3.50;;
13014;SDS011;6573;57.696;11.950;2023-08-12T12:31:41;8.47;;;3.60;;
13014;SDS011;6573;57.696;11.950;2023-08-12T12:34:10;7.13;;;3.50;;
13014;SDS011;6573;57.696;11.950;2023-08-12T12:36:41;5.70;;;3.60;;
13014;SDS011;6573;57.696;11.950;2023-08-12T12:39:09;7.03;;;3.60;;
13014;SDS011;6573;57.696;11.950;2023-08-12T12:41:38;8.27;;;3.40;;
13014;SDS011;6573;57.696;11.950;2023-08-12T12:44:07;5.33;;;3.03;;
13014;SDS011;6573;57.696;11.950;2023-08-12T12:46:37;8.53;;;3.73;;
13014;SDS011;6573;57.696;11.950;2023-08-12T12:49:05;7.53;;;3.70;;
13014;SDS011;6573;57.696;11.950;2023-08-12T12:51:34;4.83;;;3.20;;
13014;SDS011;6573;57.696;11.950;2023-08-12T12:54:02;6.23;;;3.50;;
13014;SDS011;6573;57.696;11.950;2023-08-12T12:56:31;4.53;;;3.00;;
13014;SDS011;6573;57.696;11.950;2023-08-12T12:58:59;6.53;;;3.00;;
13014;SDS011;6573;57.696;11.950;2023-08-12T13:01:28;6.03;;;3.00;;
13014;SDS011;6573;57.696;11.950;2023-08-12T13:03:57;7.10;;;3.07;;
13014;SDS011;6573;57.696;11.950;2023-08-12T13:06:26;6.43;;;3.10;;
13014;SDS011;6573;57.696;11.950;2023-08-12T13:08:54;7.00;;;3.40;;
13014;SDS011;6573;57.696;11.950;2023-08-12T13:11:22;4.20;;;2.57;;
13014;SDS011;6573;57.696;11.950;2023-08-12T13:13:51;6.73;;;3.20;;
13014;SDS011;6573;57.696;11.950;2023-08-12T13:16:20;4.80;;;2.50;;
13014;SDS011;6573;57.696;11.950;2023-08-12T13:18:49;5.67;;;2.53;;
13014;SDS011;6573;57.696;11.950;2023-08-12T13:21:19;9.13;;;3.40;;
13014;SDS011;6573;57.696;11.950;2023-08-12T13:23:47;6.50;;;3.33;;
13014;SDS011;6573;57.696;11.950;2023-08-12T13:26:15;7.07;;;3.20;;
13014;SDS011;6573;57.696;11.950;2023-08-12T13:28:44;4.60;;;3.00;;
13014;SDS011;6573;57.696;11.950;2023-08-12T13:31:12;8.00;;;4.00;;
13014;SDS011;6573;57.696;11.950;2023-08-12T13:33:41;4.57;;;2.73;;
13014;SDS011;6573;57.696;11.950;2023-08-12T13:36:09;5.07;;;2.77;;
13014;SDS011;6573;57.696;11.950;2023-08-12T13:38:39;6.57;;;2.53;;
13014;SDS011;6573;57.696;11.950;2023-08-12T13:41:07;6.77;;;2.70;;
13014;SDS011;6573;57.696;11.950;2023-08-12T13:43:36;5.63;;;3.00;;
13014;SDS011;6573;57.696;11.950;2023-08-12T13:46:04;4.13;;;2.70;;
13014;SDS011;6573;57.696;11.950;2023-08-12T13:48:32;3.53;;;2.23;;
13014;SDS011;6573;57.696;11.950;2023-08-12T13:51:01;3.60;;;2.33;;
13014;SDS011;6573;57.696;11.950;2023-08-12T13:53:29;8.27;;;2.67;;
13014;SDS011;6573;57.696;11.950;2023-08-12T13:55:59;2.83;;;2.53;;
13014;SDS011;6573;57.696;11.950;2023-08-12T13:58:28;3.80;;;2.00;;
13014;SDS011;6573;57.696;11.950;2023-08-12T14:00:56;2.40;;;2.20;;
13014;SDS011;6573;57.696;11.950;2023-08-12T14:03:25;2.33;;;1.90;;
13014;SDS011;6573;57.696;11.950;2023-08-12T14:05:53;3.53;;;1.80;;
13014;SDS011;6573;57.696;11.950;2023-08-12T14:08:22;7.33;;;1.90;;
13014;SDS011;6573;57.696;11.950;2023-08-12T14:10:50;1.70;;;1.57;;
13014;SDS011;6573;57.696;11.950;2023-08-12T14:13:19;1.63;;;1.53;;
13014;SDS011;6573;57.696;11.950;2023-08-12T14:15:48;2.10;;;1.90;;
13014;SDS011;6573;57.696;11.950;2023-08-12T14:18:16;5.27;;;1.77;;
13014;SDS011;6573;57.696;11.950;2023-08-12T14:20:44;2.30;;;1.60;;
13014;SDS011;6573;57.696;11.950;2023-08-12T14:23:13;2.17;;;1.97;;
13014;SDS011;6573;57.696;11.950;2023-08-12T14:25:41;3.90;;;2.40;;
13014;SDS011;6573;57.696;11.950;2023-08-12T14:28:09;3.03;;;2.70;;
13014;SDS011;6573;57.696;11.950;2023-08-12T14:30:39;3.90;;;3.60;;
13014;SDS011;6573;57.696;11.950;2023-08-12T14:33:08;4.80;;;4.30;;
13014;SDS011;6573;57.696;11.950;2023-08-12T14:35:36;3.27;;;2.97;;
13014;SDS011;6573;57.696;11.950;2023-08-12T14:38:05;3.67;;;2.93;;
13014;SDS011;6573;57.696;11.950;2023-08-12T14:40:33;6.67;;;3.00;;
13014;SDS011;6573;57.696;11.950;2023-08-12T14:43:02;4.20;;;3.80;;
13014;SDS011;6573;57.696;11.950;2023-08-12T14:45:30;4.07;;;3.70;;
13014;SDS011;6573;57.696;11.950;2023-08-12T14:48:00;4.93;;;3.30;;
13014;SDS011;6573;57.696;11.950;2023-08-12T14:50:28;5.20;;;4.50;;
13014;SDS011;6573;57.696;11.950;2023-08-12T14:52:58;3.83;;;3.43;;
13014;SDS011;6573;57.696;11.950;2023-08-12T14:55:26;4.20;;;3.80;;